createdAt,value
2023-02-07T00:01:44.316Z,8.20
2023-02-07T00:04:12.930Z,8.00
2023-02-07T00:06:41.717Z,8.10
2023-02-07T00:09:11.936Z,7.90
2023-02-07T00:11:41.079Z,7.60
2023-02-07T00:14:11.170Z,8.10
2023-02-07T00:16:40.302Z,8.30
2023-02-07T00:19:08.939Z,7.70
2023-02-07T00:21:37.634Z,8.00
2023-02-07T00:24:06.721Z,7.50
2023-02-07T00:26:35.104Z,7.40
2023-02-07T00:29:04.182Z,7.80
2023-02-07T00:31:34.083Z,6.90
2023-02-07T00:34:07.799Z,7.10
2023-02-07T00:36:37.695Z,7.40
2023-02-07T00:39:12.542Z,7.30
2023-02-07T00:41:41.645Z,7.00
2023-02-07T00:44:10.024Z,6.80
2023-02-07T00:46:39.009Z,7.00
2023-02-07T00:49:07.897Z,7.00
2023-02-07T00:51:36.178Z,6.80
2023-02-07T00:54:05.514Z,7.20
2023-02-07T00:56:34.364Z,7.70
2023-02-07T00:59:02.950Z,7.00
2023-02-07T01:01:32.273Z,6.80
2023-02-07T01:04:01.342Z,6.60
2023-02-07T01:06:33.960Z,6.90
2023-02-07T01:09:04.474Z,6.70
2023-02-07T01:11:32.929Z,7.30
2023-02-07T01:14:02.752Z,7.10
2023-02-07T01:16:36.149Z,6.40
2023-02-07T01:19:08.637Z,7.20
2023-02-07T01:21:37.197Z,6.60
2023-02-07T01:24:07.215Z,6.60
2023-02-07T01:26:36.718Z,6.60
2023-02-07T01:29:06.040Z,7.10
2023-02-07T01:31:35.243Z,6.90
2023-02-07T01:34:05.508Z,6.40
2023-02-07T01:36:34.897Z,6.90
2023-02-07T01:39:04.239Z,6.70
2023-02-07T01:41:36.094Z,7.00
2023-02-07T01:44:24.036Z,7.10
2023-02-07T01:46:52.623Z,6.50
2023-02-07T01:49:23.242Z,6.90
2023-02-07T01:52:16.812Z,6.20
2023-02-07T01:54:45.969Z,6.30
2023-02-07T01:57:16.555Z,6.40
2023-02-07T01:59:45.021Z,7.60
2023-02-07T02:02:15.931Z,7.20
2023-02-07T02:04:44.131Z,7.00
2023-02-07T02:07:13.835Z,6.70
2023-02-07T02:09:42.622Z,7.20
2023-02-07T02:12:42.452Z,6.60
2023-02-07T02:15:49.373Z,7.20
2023-02-07T02:18:33.172Z,6.60
2023-02-07T02:21:27.563Z,6.10
2023-02-07T02:24:08.011Z,6.50
2023-02-07T02:26:42.322Z,6.50
2023-02-07T02:29:22.378Z,6.60
2023-02-07T02:31:50.654Z,6.20
2023-02-07T02:34:28.350Z,6.20
2023-02-07T02:37:15.159Z,6.20
2023-02-07T02:39:52.655Z,6.70
2023-02-07T02:43:02.300Z,6.30
2023-02-07T02:45:36.076Z,6.10
2023-02-07T02:50:34.492Z,6.20
2023-02-07T02:53:02.979Z,6.80
2023-02-07T02:56:12.626Z,6.40
2023-02-07T02:59:00.766Z,6.50
2023-02-07T03:01:42.679Z,6.10
2023-02-07T03:04:16.875Z,6.40
2023-02-07T03:06:51.194Z,6.80
2023-02-07T03:09:28.480Z,5.80
2023-02-07T03:12:09.249Z,6.60
2023-02-07T03:14:53.098Z,6.60
2023-02-07T03:17:26.925Z,6.60
2023-02-07T03:20:04.812Z,6.30
2023-02-07T03:22:33.278Z,7.20
2023-02-07T03:25:02.270Z,6.50
2023-02-07T03:27:31.264Z,5.90
2023-02-07T03:30:01.178Z,6.30
2023-02-07T03:32:35.384Z,6.20
2023-02-07T03:35:16.985Z,5.70
2023-02-07T03:37:51.803Z,5.70
2023-02-07T03:40:20.313Z,6.10
2023-02-07T03:42:54.398Z,6.50
2023-02-07T03:45:22.994Z,6.80
2023-02-07T03:47:51.670Z,5.50
2023-02-07T03:50:20.728Z,6.10
2023-02-07T03:52:49.441Z,6.10
2023-02-07T03:55:17.803Z,6.10
2023-02-07T03:57:46.304Z,5.60
2023-02-07T04:00:16.038Z,6.30
2023-02-07T04:02:44.613Z,6.40
2023-02-07T04:05:13.075Z,6.40
2023-02-07T04:07:41.970Z,6.10
2023-02-07T04:10:10.764Z,5.90
2023-02-07T04:12:42.510Z,6.60
2023-02-07T04:15:11.820Z,5.90
2023-02-07T04:17:40.097Z,6.00
2023-02-07T04:20:09.690Z,5.60
2023-02-07T04:22:38.583Z,6.90
2023-02-07T04:25:07.678Z,6.00
2023-02-07T04:27:36.885Z,6.60
2023-02-07T04:30:06.277Z,6.00
2023-02-07T04:32:34.861Z,5.80
2023-02-07T04:35:04.156Z,5.80
2023-02-07T04:37:33.967Z,5.70
2023-02-07T04:40:02.434Z,5.50
2023-02-07T04:42:30.697Z,5.90
2023-02-07T04:44:59.307Z,5.90
2023-02-07T04:47:27.587Z,5.80
2023-02-07T04:49:56.173Z,6.20
2023-02-07T04:55:49.451Z,5.50
2023-02-07T04:58:17.730Z,5.30
2023-02-07T05:00:46.506Z,6.50
2023-02-07T05:03:14.887Z,5.20
2023-02-07T05:05:43.709Z,5.20
2023-02-07T05:08:12.394Z,6.10
2023-02-07T05:10:40.648Z,5.60
2023-02-07T05:13:09.264Z,5.10
2023-02-07T05:15:39.976Z,5.90
2023-02-07T05:18:08.612Z,6.00
2023-02-07T05:20:37.612Z,5.50
2023-02-07T05:23:05.911Z,5.90
2023-02-07T05:25:34.184Z,5.80
2023-02-07T05:28:02.586Z,4.80
2023-02-07T05:30:31.173Z,5.60
2023-02-07T05:33:06.128Z,5.70
2023-02-07T05:35:39.062Z,5.40
2023-02-07T05:38:09.849Z,6.00
2023-02-07T05:40:39.196Z,5.90
2023-02-07T05:43:07.778Z,6.50
2023-02-07T05:45:36.428Z,6.30
2023-02-07T05:48:04.861Z,5.90
2023-02-07T05:50:34.112Z,5.50
2023-02-07T05:53:09.479Z,5.20
2023-02-07T05:55:38.951Z,5.50
2023-02-07T05:58:07.463Z,5.30
2023-02-07T06:00:35.944Z,5.70
2023-02-07T06:03:04.615Z,5.70
2023-02-07T06:05:34.013Z,5.20
2023-02-07T06:08:03.039Z,6.00
2023-02-07T06:10:31.503Z,5.40
2023-02-07T06:13:00.290Z,5.80
2023-02-07T06:15:28.585Z,6.00
2023-02-07T06:17:57.351Z,5.60
2023-02-07T06:20:25.939Z,5.80
2023-02-07T06:22:54.312Z,5.20
2023-02-07T06:25:22.807Z,6.40
2023-02-07T06:27:51.215Z,6.00
2023-02-07T06:30:19.656Z,5.10
2023-02-07T06:32:48.953Z,4.80
2023-02-07T06:35:17.439Z,5.10
2023-02-07T06:37:45.709Z,4.70
2023-02-07T06:40:14.179Z,4.90
2023-02-07T06:42:44.732Z,5.50
2023-02-07T06:45:13.303Z,5.30
2023-02-07T06:47:43.726Z,5.30
2023-02-07T06:50:12.823Z,5.40
2023-02-07T06:52:42.126Z,4.80
2023-02-07T06:55:10.505Z,5.60
2023-02-07T06:57:39.597Z,5.70
2023-02-07T07:00:09.402Z,5.30
2023-02-07T07:02:40.198Z,5.40
2023-02-07T07:05:09.519Z,5.20
2023-02-07T07:07:39.768Z,5.20
2023-02-07T07:10:08.527Z,5.20
2023-02-07T07:12:38.364Z,5.00
2023-02-07T07:15:08.080Z,4.80
2023-02-07T07:17:36.459Z,5.10
2023-02-07T07:20:05.885Z,5.00
2023-02-07T07:22:35.057Z,4.50
2023-02-07T07:25:04.683Z,4.70
2023-02-07T07:27:33.449Z,5.60
2023-02-07T07:30:01.727Z,4.40
2023-02-07T07:32:34.277Z,4.90
2023-02-07T07:35:04.013Z,4.70
2023-02-07T07:37:32.719Z,4.90
2023-02-07T07:40:01.278Z,5.30
2023-02-07T07:42:29.978Z,4.60
2023-02-07T07:45:04.994Z,5.30
2023-02-07T07:47:33.617Z,4.90
2023-02-07T07:50:02.572Z,5.30
2023-02-07T07:52:31.558Z,5.10
2023-02-07T07:55:00.141Z,4.80
2023-02-07T07:57:28.826Z,4.90
2023-02-07T07:59:57.526Z,5.20
2023-02-07T08:02:26.093Z,4.80
2023-02-07T08:04:54.882Z,4.70
2023-02-07T08:07:23.466Z,5.30
2023-02-07T08:09:52.232Z,5.80
2023-02-07T08:12:20.994Z,4.80
2023-02-07T08:14:49.695Z,5.40
2023-02-07T08:43:34.982Z,5.30
2023-02-07T08:46:02.552Z,7.10
2023-02-07T08:48:29.906Z,6.60
2023-02-07T08:50:57.757Z,4.90
2023-02-07T08:53:24.805Z,4.20
2023-02-07T08:55:52.365Z,6.30
2023-02-07T08:58:19.512Z,6.10
2023-02-07T09:00:46.696Z,6.10
2023-02-07T09:03:14.940Z,4.90
2023-02-07T09:05:42.086Z,5.30
2023-02-07T09:08:09.453Z,4.90
2023-02-07T09:10:37.053Z,5.20
2023-02-07T09:13:05.683Z,5.60
2023-02-07T09:15:32.853Z,4.90
2023-02-07T09:18:00.186Z,5.20
2023-02-07T09:20:27.459Z,6.30
2023-02-07T09:23:13.030Z,5.90
2023-02-07T09:25:41.884Z,6.20
2023-02-07T09:28:09.211Z,5.90
2023-02-07T09:30:36.708Z,7.50
2023-02-07T09:33:03.977Z,6.10
2023-02-07T09:35:30.989Z,5.80
2023-02-07T09:37:58.583Z,5.20
2023-02-07T09:40:25.633Z,5.90
2023-02-07T09:43:36.292Z,4.90
2023-02-07T09:46:20.748Z,6.40
2023-02-07T09:48:53.640Z,5.60
2023-02-07T09:51:22.138Z,5.10
2023-02-07T09:53:54.703Z,5.20
2023-02-07T09:56:22.970Z,5.80
2023-02-07T09:59:22.806Z,5.30
2023-02-07T10:01:53.419Z,5.20
2023-02-07T10:04:21.204Z,5.50
2023-02-07T10:06:52.954Z,5.50
2023-02-07T10:09:36.580Z,4.50
2023-02-07T13:35:34.548Z,7.10
2023-02-07T13:38:37.336Z,7.20
2023-02-07T13:41:19.234Z,7.30
2023-02-07T13:44:19.765Z,6.70
2023-02-07T13:47:26.356Z,6.70
2023-02-07T13:49:55.126Z,7.80
2023-02-07T13:52:43.899Z,8.10
2023-02-07T13:55:39.859Z,7.20
2023-02-07T13:58:54.085Z,7.40
2023-02-07T14:01:29.001Z,7.50
2023-02-07T14:04:07.609Z,7.70
2023-02-07T14:06:42.345Z,7.20
2023-02-07T14:09:16.759Z,7.40
2023-02-07T14:11:48.718Z,7.80
2023-02-07T14:14:29.487Z,6.90
2023-02-07T14:17:00.147Z,7.40
2023-02-07T14:19:43.652Z,6.60
2023-02-07T14:22:28.022Z,6.90
2023-02-07T14:24:57.812Z,7.00
2023-02-07T14:27:34.587Z,6.60
2023-02-07T14:30:11.782Z,6.30
2023-02-07T14:32:55.200Z,6.60
2023-02-07T14:35:22.435Z,7.50
2023-02-07T14:37:53.494Z,6.60
2023-02-07T14:40:44.208Z,7.30
2023-02-07T14:43:11.272Z,6.80
2023-02-07T14:45:50.562Z,6.30
2023-02-07T14:48:33.088Z,6.30
2023-02-07T14:51:00.555Z,7.00
2023-02-07T14:53:28.513Z,6.20
2023-02-07T14:55:56.226Z,6.40
2023-02-07T14:58:32.617Z,5.80
2023-02-07T15:00:59.489Z,6.30
2023-02-07T15:03:30.534Z,6.90
2023-02-07T15:05:58.985Z,6.90
2023-02-07T15:08:27.943Z,6.50
2023-02-07T15:10:55.259Z,6.90
2023-02-07T15:13:30.520Z,6.50
2023-02-07T15:15:58.793Z,6.90
2023-02-07T15:18:28.372Z,6.60
2023-02-07T15:20:58.366Z,7.20
2023-02-07T15:23:26.772Z,6.90
2023-02-07T15:25:53.707Z,8.30
2023-02-07T15:28:26.548Z,7.80
2023-02-07T15:31:06.217Z,7.10
2023-02-07T15:33:57.341Z,6.90
2023-02-07T15:36:30.433Z,7.30
2023-02-07T15:38:58.372Z,7.60
2023-02-07T15:41:27.085Z,6.30
2023-02-07T15:44:07.396Z,7.10
2023-02-07T15:46:57.125Z,8.60
2023-02-07T15:49:35.397Z,7.10
2023-02-07T15:52:03.708Z,7.20
2023-02-07T15:54:34.365Z,7.00
2023-02-07T15:57:01.595Z,8.40
2023-02-07T15:59:30.692Z,8.50
2023-02-07T16:01:59.750Z,6.90
2023-02-07T16:04:28.403Z,7.40
2023-02-07T16:07:04.016Z,7.20
2023-02-07T16:09:42.856Z,6.60
2023-02-07T16:12:44.804Z,6.50
2023-02-07T16:15:23.933Z,7.50
2023-02-07T16:17:51.697Z,8.00
2023-02-07T16:20:19.465Z,7.40
2023-02-07T16:22:47.942Z,7.20
2023-02-07T16:25:20.624Z,6.50
2023-02-07T16:27:49.953Z,6.60
2023-02-07T16:30:23.010Z,7.20
2023-02-07T16:32:50.262Z,10.20
2023-02-07T16:35:25.203Z,7.10
2023-02-07T16:37:53.390Z,6.30
2023-02-07T16:40:21.949Z,7.00
2023-02-07T16:42:50.019Z,6.70
2023-02-07T16:45:19.845Z,6.60
2023-02-07T16:47:46.775Z,6.30
2023-02-07T16:50:15.769Z,6.60
2023-02-07T16:52:43.222Z,6.60
2023-02-07T16:55:10.476Z,6.80
2023-02-07T16:57:38.136Z,6.90
2023-02-07T17:00:06.536Z,7.10
2023-02-07T17:02:35.713Z,6.70
2023-02-07T17:05:02.962Z,6.90
2023-02-07T17:07:31.457Z,7.20
2023-02-07T17:09:58.797Z,7.70
2023-02-07T17:12:31.476Z,7.40
2023-02-07T17:14:59.477Z,6.70
2023-02-07T17:17:27.414Z,7.10
2023-02-07T17:19:54.768Z,8.30
2023-02-07T17:22:22.030Z,7.40
2023-02-07T17:24:49.171Z,8.10
2023-02-07T17:27:16.316Z,8.40
2023-02-07T17:29:44.490Z,11.40
2023-02-07T17:32:12.067Z,10.60
2023-02-07T17:34:39.719Z,9.60
2023-02-07T17:37:09.420Z,10.10
2023-02-07T17:39:36.470Z,8.40
2023-02-07T17:42:03.611Z,8.00
2023-02-07T17:44:33.917Z,8.00
2023-02-07T17:47:01.390Z,9.50
2023-02-07T17:49:28.539Z,9.40
2023-02-07T17:51:56.677Z,9.20
2023-02-07T17:54:23.765Z,9.20
2023-02-07T17:56:50.682Z,7.90
2023-02-07T17:59:22.675Z,8.30
2023-02-07T18:01:50.016Z,8.10
2023-02-07T18:04:16.962Z,8.00
2023-02-07T18:06:47.708Z,8.40
2023-02-07T18:09:17.914Z,9.50
2023-02-07T18:11:44.961Z,9.00
2023-02-07T18:14:12.211Z,7.70
2023-02-07T18:16:39.779Z,7.80
2023-02-07T18:19:10.924Z,7.70
2023-02-07T18:21:38.577Z,7.60
2023-02-07T18:24:06.545Z,7.90
2023-02-07T18:26:34.427Z,7.90
2023-02-07T18:29:02.702Z,8.40
2023-02-07T18:31:29.911Z,8.10
2023-02-07T18:33:57.603Z,11.10
2023-02-07T18:36:26.388Z,12.80
2023-02-07T18:38:53.343Z,9.20
2023-02-07T18:41:22.974Z,8.10
2023-02-07T18:43:50.089Z,8.80
2023-02-07T18:46:19.429Z,9.40
2023-02-07T18:48:49.337Z,8.30
2023-02-07T18:51:16.861Z,8.90
2023-02-07T18:53:44.942Z,9.10
2023-02-07T18:56:14.964Z,8.60
2023-02-07T18:58:42.200Z,8.50
2023-02-07T19:01:10.553Z,9.10
2023-02-07T19:03:38.134Z,8.90
2023-02-07T19:06:05.815Z,8.90
2023-02-07T19:08:32.858Z,9.20
2023-02-07T19:11:01.677Z,9.60
2023-02-07T19:13:29.299Z,9.00
2023-02-07T19:16:08.499Z,9.70
2023-02-07T19:18:35.387Z,10.20
2023-02-07T19:21:13.478Z,10.10
2023-02-07T19:23:41.851Z,8.60
2023-02-07T19:26:08.913Z,8.10
2023-02-07T19:28:36.667Z,8.00
2023-02-07T19:31:07.868Z,9.10
2023-02-07T19:33:35.993Z,8.10
2023-02-07T19:36:07.875Z,7.20
2023-02-07T19:38:35.230Z,7.20
2023-02-07T19:41:02.545Z,8.00
2023-02-07T19:43:29.526Z,7.60
2023-02-07T19:45:56.442Z,8.00
2023-02-07T19:48:24.098Z,8.10
2023-02-07T19:51:03.226Z,7.70
2023-02-07T19:53:30.784Z,8.10
2023-02-07T19:56:08.477Z,7.40
2023-02-07T19:58:35.833Z,7.50
2023-02-07T20:01:02.904Z,6.70
2023-02-07T20:03:30.585Z,7.60
2023-02-07T20:06:02.199Z,7.70
2023-02-07T20:08:33.441Z,7.40
2023-02-07T20:11:05.611Z,7.30
2023-02-07T20:13:34.484Z,7.70
2023-02-07T20:16:10.792Z,7.90
2023-02-07T20:18:38.129Z,8.30
2023-02-07T20:21:11.904Z,7.70
2023-02-07T20:23:41.338Z,8.30
2023-02-07T20:26:10.937Z,8.30
2023-02-07T20:28:37.880Z,8.90
2023-02-07T20:31:07.546Z,7.90
2023-02-07T20:33:36.480Z,7.90
2023-02-07T20:36:04.140Z,8.60
2023-02-07T20:38:31.087Z,8.00
2023-02-07T20:41:13.715Z,8.90
2023-02-07T20:43:42.492Z,8.70
2023-02-07T20:46:12.085Z,8.50
2023-02-07T20:48:39.719Z,8.80
2023-02-07T20:51:10.286Z,9.10
2023-02-07T20:53:41.631Z,7.80
2023-02-07T20:58:40.250Z,7.60
2023-02-07T21:01:08.581Z,8.20
2023-02-07T21:03:36.265Z,7.90
2023-02-07T21:06:03.931Z,8.70
2023-02-07T21:08:31.280Z,9.50
2023-02-07T21:10:58.436Z,9.60
2023-02-07T21:13:25.574Z,8.40
2023-02-07T21:16:02.731Z,8.50
2023-02-07T21:18:31.654Z,8.90
2023-02-07T21:20:58.722Z,8.70
2023-02-07T21:23:26.052Z,9.10
2023-02-07T21:25:53.610Z,9.20
2023-02-07T21:28:20.836Z,9.00
2023-02-07T21:30:47.837Z,9.30
2023-02-07T21:33:15.266Z,8.30
2023-02-07T21:35:42.717Z,9.80
2023-02-07T21:38:10.072Z,9.40
2023-02-07T21:40:38.341Z,9.20
2023-02-07T21:43:05.602Z,8.30
2023-02-07T21:45:32.819Z,8.60
2023-02-07T21:48:00.717Z,9.00
2023-02-07T21:50:27.774Z,9.20
2023-02-07T21:52:54.809Z,9.00
2023-02-07T21:55:22.283Z,8.70
2023-02-07T21:57:49.417Z,7.60
2023-02-07T22:00:16.906Z,8.10
2023-02-07T22:02:44.032Z,8.10
2023-02-07T22:05:10.864Z,8.10
2023-02-07T22:07:38.004Z,7.70
2023-02-07T22:10:06.093Z,8.10
2023-02-07T22:12:34.053Z,8.10
2023-02-07T22:15:00.999Z,8.10
2023-02-07T22:17:28.455Z,7.80
2023-02-07T22:19:55.503Z,8.30
2023-02-07T22:22:23.066Z,6.90
2023-02-07T22:24:50.419Z,7.90
2023-02-07T22:27:18.050Z,8.50
2023-02-07T22:29:45.535Z,8.60
2023-02-07T22:32:12.991Z,7.70
2023-02-07T22:34:40.652Z,8.60
2023-02-07T22:37:08.105Z,7.60
2023-02-07T22:39:35.252Z,8.10
2023-02-07T22:42:02.308Z,8.10
2023-02-07T22:44:29.868Z,8.50
2023-02-07T22:46:57.109Z,9.00
2023-02-07T22:49:24.357Z,9.30
2023-02-07T22:51:51.507Z,9.50
2023-02-07T22:54:18.761Z,9.70
2023-02-07T22:56:46.116Z,9.10
2023-02-07T22:59:13.520Z,9.40
2023-02-07T23:01:41.579Z,9.10
2023-02-07T23:04:15.088Z,10.00
2023-02-07T23:06:43.311Z,9.70
2023-02-07T23:09:10.473Z,9.80
2023-02-07T23:11:38.230Z,9.50
2023-02-07T23:14:05.891Z,9.50
2023-02-07T23:16:33.443Z,9.90
2023-02-07T23:19:06.545Z,10.50
2023-02-07T23:21:33.579Z,10.70
2023-02-07T23:24:01.159Z,10.00
2023-02-07T23:26:28.389Z,11.20
2023-02-07T23:28:56.462Z,11.20
2023-02-07T23:31:24.539Z,12.20
2023-02-07T23:33:51.884Z,10.80
2023-02-07T23:36:19.146Z,11.50
2023-02-07T23:38:47.003Z,11.40
2023-02-07T23:41:14.462Z,11.20
2023-02-07T23:43:41.837Z,10.20
2023-02-07T23:46:09.226Z,10.40
2023-02-07T23:48:38.597Z,12.10
2023-02-07T23:54:31.339Z,12.10
2023-02-07T23:56:59.923Z,11.90
2023-02-07T23:59:28.199Z,11.10
